createdAt,value
2023-02-26T00:02:31.206Z,0.63
2023-02-26T00:05:35.049Z,0.80
2023-02-26T00:08:38.772Z,0.60
2023-02-26T00:11:42.715Z,0.63
2023-02-26T00:14:48.002Z,0.80
2023-02-26T00:17:54.506Z,0.60
2023-02-26T00:20:59.720Z,0.70
2023-02-26T00:24:03.158Z,0.75
2023-02-26T00:27:06.787Z,0.50
2023-02-26T00:30:12.989Z,0.60
2023-02-26T00:33:16.858Z,0.75
2023-02-26T00:36:24.964Z,0.60
2023-02-26T00:39:34.232Z,0.60
2023-02-26T00:42:37.937Z,0.65
2023-02-26T00:45:45.929Z,0.55
2023-02-26T00:48:54.582Z,0.63
2023-02-26T00:52:00.128Z,0.73
2023-02-26T00:55:03.650Z,0.50
2023-02-26T00:58:07.096Z,0.55
2023-02-26T01:01:11.951Z,0.57
2023-02-26T01:04:16.574Z,0.70
2023-02-26T01:07:21.808Z,0.40
2023-02-26T01:10:25.609Z,0.68
2023-02-26T01:13:29.534Z,0.43
2023-02-26T01:16:38.500Z,0.47
2023-02-26T01:19:44.560Z,0.57
2023-02-26T01:22:52.273Z,0.70
2023-02-26T01:25:58.630Z,0.77
2023-02-26T01:29:02.268Z,0.80
2023-02-26T01:32:09.786Z,0.50
2023-02-26T01:35:20.616Z,0.70
2023-02-26T01:38:28.277Z,0.50
2023-02-26T01:41:34.878Z,0.70
2023-02-26T01:44:41.548Z,0.77
2023-02-26T01:47:50.246Z,0.45
2023-02-26T01:50:53.569Z,0.70
2023-02-26T01:53:56.885Z,0.40
2023-02-26T01:57:04.820Z,0.32
2023-02-26T02:00:09.063Z,0.73
2023-02-26T02:03:17.416Z,0.90
2023-02-26T02:06:23.112Z,0.60
2023-02-26T02:09:26.690Z,0.63
2023-02-26T02:12:34.132Z,0.40
2023-02-26T02:15:41.258Z,0.40
2023-02-26T02:18:51.298Z,0.70
2023-02-26T02:22:02.898Z,0.60
2023-02-26T02:25:14.586Z,0.60
2023-02-26T02:28:25.407Z,0.40
2023-02-26T02:31:33.468Z,0.52
2023-02-26T02:34:39.570Z,0.63
2023-02-26T02:37:44.888Z,0.60
2023-02-26T02:40:51.562Z,0.63
2023-02-26T02:43:55.950Z,0.70
2023-02-26T02:47:01.530Z,0.43
2023-02-26T02:50:09.389Z,0.50
2023-02-26T02:53:15.796Z,0.50
2023-02-26T02:56:21.359Z,0.60
2023-02-26T02:59:26.864Z,0.70
2023-02-26T03:02:34.272Z,0.63
2023-02-26T03:05:37.579Z,0.60
2023-02-26T03:08:41.842Z,0.40
2023-02-26T03:11:45.616Z,0.63
2023-02-26T03:14:50.188Z,0.77
2023-02-26T03:18:00.313Z,0.50
2023-02-26T03:21:06.122Z,0.50
2023-02-26T03:24:11.456Z,0.50
2023-02-26T03:27:18.530Z,0.50
2023-02-26T03:30:24.211Z,0.50
2023-02-26T03:33:33.043Z,0.40
2023-02-26T03:36:40.763Z,0.50
2023-02-26T03:40:04.943Z,0.50
2023-02-26T03:43:10.409Z,0.55
2023-02-26T03:46:18.878Z,0.60
2023-02-26T03:49:25.503Z,0.60
2023-02-26T03:52:30.499Z,0.57
2023-02-26T03:55:55.699Z,0.75
2023-02-26T03:59:14.024Z,0.50
2023-02-26T04:02:21.397Z,0.68
2023-02-26T04:05:30.477Z,0.73
2023-02-26T04:08:34.162Z,0.60
2023-02-26T04:11:38.530Z,0.65
2023-02-26T04:14:41.895Z,0.50
2023-02-26T04:17:45.401Z,0.60
2023-02-26T04:20:51.326Z,0.70
2023-02-26T04:23:54.700Z,0.40
2023-02-26T04:26:59.337Z,0.50
2023-02-26T04:30:02.996Z,0.52
2023-02-26T04:33:08.051Z,0.50
2023-02-26T04:36:12.886Z,0.70
2023-02-26T04:39:17.293Z,0.40
2023-02-26T04:42:20.674Z,0.68
2023-02-26T04:45:25.805Z,0.50
2023-02-26T04:48:30.882Z,0.70
2023-02-26T04:51:35.664Z,0.98
2023-02-26T04:54:39.115Z,0.75
2023-02-26T04:57:42.518Z,0.80
2023-02-26T05:00:49.470Z,0.43
2023-02-26T05:03:52.898Z,0.43
2023-02-26T05:06:58.298Z,0.60
2023-02-26T05:10:01.687Z,0.70
2023-02-26T05:13:05.304Z,0.52
2023-02-26T05:16:09.516Z,0.60
2023-02-26T05:19:13.234Z,0.90
2023-02-26T05:22:20.174Z,0.50
2023-02-26T05:25:23.542Z,0.80
2023-02-26T05:28:28.128Z,0.60
2023-02-26T05:31:32.431Z,0.50
2023-02-26T05:34:35.813Z,0.80
2023-02-26T05:37:40.619Z,0.63
2023-02-26T05:40:43.987Z,0.50
2023-02-26T05:43:47.423Z,0.50
2023-02-26T05:46:50.893Z,0.50
2023-02-26T05:49:54.312Z,0.55
2023-02-26T05:52:59.096Z,0.80
2023-02-26T05:56:02.511Z,0.57
2023-02-26T05:59:06.215Z,0.65
2023-02-26T06:02:09.832Z,0.80
2023-02-26T06:05:13.195Z,0.45
2023-02-26T06:08:17.961Z,1.10
2023-02-26T06:11:21.366Z,0.68
2023-02-26T06:14:24.796Z,0.63
2023-02-26T06:17:28.143Z,1.08
2023-02-26T06:20:31.450Z,0.70
2023-02-26T06:23:36.301Z,0.73
2023-02-26T06:26:39.683Z,0.73
2023-02-26T06:29:43.024Z,0.90
2023-02-26T06:32:46.472Z,0.73
2023-02-26T06:35:49.974Z,0.60
2023-02-26T06:38:54.673Z,0.82
2023-02-26T06:41:58.032Z,0.70
2023-02-26T06:45:01.415Z,0.90
2023-02-26T06:48:04.913Z,0.60
2023-02-26T06:51:08.967Z,0.55
2023-02-26T06:54:13.654Z,0.47
2023-02-26T06:57:17.157Z,0.80
2023-02-26T07:00:20.711Z,0.57
2023-02-26T07:03:24.202Z,0.57
2023-02-26T07:06:38.338Z,0.50
2023-02-26T07:09:45.625Z,0.55
2023-02-26T07:12:50.011Z,0.80
2023-02-26T07:15:53.331Z,0.57
2023-02-26T07:18:56.722Z,0.60
2023-02-26T07:22:00.013Z,1.10
2023-02-26T07:25:05.127Z,0.70
2023-02-26T07:28:08.643Z,0.70
2023-02-26T07:31:12.094Z,0.60
2023-02-26T07:34:15.535Z,0.70
2023-02-26T07:37:19.520Z,1.20
2023-02-26T07:40:24.253Z,0.82
2023-02-26T07:43:27.604Z,1.08
2023-02-26T07:46:31.111Z,0.98
2023-02-26T07:49:34.862Z,0.88
2023-02-26T07:52:38.245Z,0.90
2023-02-26T07:55:43.010Z,0.90
2023-02-26T07:58:46.377Z,0.60
2023-02-26T08:01:49.818Z,0.82
2023-02-26T08:04:53.293Z,0.75
2023-02-26T08:07:56.659Z,0.70
2023-02-26T08:11:02.028Z,0.60
2023-02-26T08:14:05.383Z,0.45
2023-02-26T08:17:08.792Z,0.57
2023-02-26T08:20:14.269Z,0.43
2023-02-26T08:23:17.965Z,0.95
2023-02-26T08:26:23.072Z,0.88
2023-02-26T08:29:26.645Z,0.70
2023-02-26T08:32:29.995Z,0.40
2023-02-26T08:35:34.030Z,0.68
2023-02-26T08:38:37.446Z,0.70
2023-02-26T08:41:42.114Z,1.10
2023-02-26T08:44:45.604Z,0.98
2023-02-26T08:47:56.822Z,0.80
2023-02-26T08:51:00.515Z,0.57
2023-02-26T08:54:03.855Z,0.70
2023-02-26T08:57:08.743Z,0.60
2023-02-26T09:00:12.770Z,0.60
2023-02-26T09:03:16.514Z,0.70
2023-02-26T09:06:19.981Z,0.70
2023-02-26T09:09:23.552Z,0.85
2023-02-26T09:12:28.253Z,0.73
2023-02-26T09:15:31.606Z,0.70
2023-02-26T09:18:35.556Z,0.75
2023-02-26T09:21:39.335Z,0.50
2023-02-26T09:24:43.066Z,0.63
2023-02-26T09:27:47.841Z,0.60
2023-02-26T09:30:53.275Z,0.68
2023-02-26T09:33:56.747Z,0.60
2023-02-26T09:37:00.198Z,0.47
2023-02-26T09:40:04.231Z,0.57
2023-02-26T09:43:14.776Z,0.68
2023-02-26T09:46:24.055Z,0.60
2023-02-26T09:49:31.689Z,0.60
2023-02-26T09:52:37.703Z,0.60
2023-02-26T09:55:43.569Z,0.50
2023-02-26T09:58:48.443Z,0.73
2023-02-26T10:01:57.790Z,0.60
2023-02-26T10:05:03.889Z,0.77
2023-02-26T10:08:09.663Z,0.60
2023-02-26T10:11:15.684Z,0.80
2023-02-26T10:14:24.770Z,4.10
2023-02-26T10:17:31.486Z,1.10
2023-02-26T10:20:39.467Z,0.80
2023-02-26T10:23:44.929Z,1.02
2023-02-26T10:26:52.076Z,0.68
2023-02-26T10:30:00.278Z,0.57
2023-02-26T10:33:08.858Z,0.40
2023-02-26T10:36:16.072Z,0.55
2023-02-26T10:39:24.542Z,0.60
2023-02-26T10:42:29.317Z,0.50
2023-02-26T10:45:40.818Z,0.60
2023-02-26T10:48:52.708Z,0.45
2023-02-26T10:51:56.147Z,0.43
2023-02-26T10:55:05.945Z,1.00
2023-02-26T10:58:13.217Z,0.40
2023-02-26T11:01:19.545Z,0.50
2023-02-26T11:04:24.331Z,0.50
2023-02-26T11:07:32.053Z,0.50
2023-02-26T11:10:41.565Z,0.40
2023-02-26T11:13:45.018Z,0.50
2023-02-26T11:16:52.242Z,0.55
2023-02-26T11:19:58.198Z,0.40
2023-02-26T11:23:03.060Z,0.45
2023-02-26T11:26:08.562Z,0.63
2023-02-26T11:29:15.736Z,0.40
2023-02-26T11:32:23.417Z,0.40
2023-02-26T11:35:27.537Z,0.57
2023-02-26T11:38:32.425Z,0.50
2023-02-26T11:41:37.625Z,0.30
2023-02-26T11:44:45.528Z,0.40
2023-02-26T11:47:52.107Z,0.63
2023-02-26T11:50:57.260Z,0.38
2023-02-26T11:54:02.837Z,0.68
2023-02-26T11:57:13.192Z,0.70
2023-02-26T12:00:21.376Z,0.45
2023-02-26T12:03:29.115Z,0.52
2023-02-26T12:06:32.853Z,0.40
2023-02-26T12:09:36.373Z,0.40
2023-02-26T12:12:46.497Z,0.50
2023-02-26T12:15:54.951Z,0.88
2023-02-26T12:19:03.270Z,0.50
2023-02-26T12:22:26.918Z,0.45
2023-02-26T12:25:39.125Z,1.02
2023-02-26T12:28:52.221Z,0.60
2023-02-26T12:32:05.393Z,0.57
2023-02-26T12:35:26.910Z,0.45
2023-02-26T12:38:35.704Z,0.63
2023-02-26T12:41:50.054Z,0.70
2023-02-26T12:44:58.352Z,0.63
2023-02-26T12:48:13.701Z,0.70
2023-02-26T12:51:24.523Z,0.50
2023-02-26T12:54:37.061Z,0.70
2023-02-26T12:57:55.814Z,0.60
2023-02-26T13:01:10.066Z,0.30
2023-02-26T13:04:28.912Z,0.40
2023-02-26T13:07:42.187Z,0.50
2023-02-26T13:10:53.235Z,0.60
2023-02-26T13:14:06.757Z,0.50
2023-02-26T13:17:14.271Z,0.80
2023-02-26T13:20:19.721Z,0.50
2023-02-26T13:23:25.487Z,0.50
2023-02-26T13:26:30.930Z,0.55
2023-02-26T13:29:36.331Z,0.65
2023-02-26T13:32:41.404Z,0.70
2023-02-26T13:35:46.806Z,0.60
2023-02-26T13:38:57.508Z,0.70
2023-02-26T13:42:06.353Z,0.60
2023-02-26T13:45:20.300Z,0.52
2023-02-26T13:48:27.364Z,0.88
2023-02-26T13:51:33.501Z,0.60
2023-02-26T13:54:44.507Z,0.50
2023-02-26T13:57:54.046Z,0.65
2023-02-26T14:01:02.326Z,0.60
2023-02-26T14:04:10.589Z,0.82
2023-02-26T14:07:15.958Z,1.10
2023-02-26T14:10:25.559Z,0.60
2023-02-26T14:13:36.096Z,0.63
2023-02-26T14:16:41.642Z,0.52
2023-02-26T14:19:46.420Z,0.60
2023-02-26T14:22:53.974Z,0.60
2023-02-26T14:26:04.424Z,0.70
2023-02-26T14:29:16.391Z,0.55
2023-02-26T14:32:28.800Z,1.08
2023-02-26T14:35:33.822Z,0.43
2023-02-26T14:38:40.849Z,0.57
2023-02-26T14:41:44.590Z,0.47
2023-02-26T14:44:50.682Z,0.47
2023-02-26T14:47:54.655Z,0.52
2023-02-26T14:51:06.742Z,0.75
2023-02-26T14:54:22.696Z,0.63
2023-02-26T14:57:29.893Z,0.65
2023-02-26T15:00:40.013Z,0.60
2023-02-26T15:03:52.182Z,0.75
2023-02-26T15:07:04.987Z,0.60
2023-02-26T15:10:18.349Z,0.80
2023-02-26T15:13:34.630Z,0.60
2023-02-26T15:16:44.694Z,0.75
2023-02-26T15:19:55.423Z,0.70
2023-02-26T15:23:04.942Z,0.47
2023-02-26T15:26:11.203Z,0.70
2023-02-26T15:29:15.288Z,1.13
2023-02-26T15:32:25.833Z,0.75
2023-02-26T15:35:30.346Z,1.00
2023-02-26T15:38:41.385Z,0.45
2023-02-26T15:41:45.708Z,0.70
2023-02-26T15:44:56.786Z,0.47
2023-02-26T15:48:04.521Z,0.73
2023-02-26T15:51:08.843Z,1.67
2023-02-26T15:54:16.606Z,0.57
2023-02-26T15:57:20.318Z,0.77
2023-02-26T16:00:27.261Z,0.95
2023-02-26T16:03:33.415Z,0.60
2023-02-26T16:06:37.607Z,0.57
2023-02-26T16:09:41.734Z,0.50
2023-02-26T16:12:49.075Z,0.75
2023-02-26T16:15:52.652Z,0.50
2023-02-26T16:18:57.823Z,0.63
2023-02-26T16:22:03.139Z,0.57
2023-02-26T16:25:08.270Z,0.60
2023-02-26T16:28:16.050Z,0.55
2023-02-26T16:31:21.305Z,0.55
2023-02-26T16:34:30.311Z,0.55
2023-02-26T16:37:36.077Z,0.60
2023-02-26T16:40:41.879Z,0.60
2023-02-26T16:43:54.235Z,0.52
2023-02-26T16:46:58.986Z,0.88
2023-02-26T16:50:03.932Z,0.50
2023-02-26T16:53:08.964Z,0.90
2023-02-26T16:56:16.717Z,0.70
2023-02-26T16:59:23.031Z,0.60
2023-02-26T17:02:28.232Z,0.90
2023-02-26T17:05:35.613Z,0.60
2023-02-26T17:08:45.038Z,0.50
2023-02-26T17:11:49.683Z,0.57
2023-02-26T17:14:54.984Z,0.60
2023-02-26T17:18:23.723Z,0.82
2023-02-26T17:21:41.768Z,0.50
2023-02-26T17:24:58.719Z,0.60
2023-02-26T17:28:21.227Z,0.85
2023-02-26T17:31:26.929Z,0.98
2023-02-26T17:34:30.762Z,1.00
2023-02-26T17:37:35.951Z,1.02
2023-02-26T17:40:39.606Z,0.57
2023-02-26T17:43:42.925Z,0.47
2023-02-26T17:46:46.225Z,0.30
2023-02-26T17:49:56.287Z,0.63
2023-02-26T17:53:21.200Z,0.50
2023-02-26T17:56:46.162Z,0.57
2023-02-26T18:00:10.251Z,0.65
2023-02-26T18:03:26.141Z,0.47
2023-02-26T18:06:37.786Z,0.60
2023-02-26T18:09:42.625Z,0.77
2023-02-26T18:12:46.353Z,0.60
2023-02-26T18:15:50.018Z,0.65
2023-02-26T18:18:54.040Z,0.73
2023-02-26T18:21:57.921Z,1.00
2023-02-26T18:25:02.801Z,0.50
2023-02-26T18:28:06.810Z,0.63
2023-02-26T18:31:11.033Z,0.70
2023-02-26T18:34:14.741Z,1.23
2023-02-26T18:37:19.144Z,0.98
2023-02-26T18:40:25.077Z,0.98
2023-02-26T18:43:28.682Z,0.82
2023-02-26T18:46:34.681Z,0.82
2023-02-26T18:49:38.140Z,0.60
2023-02-26T18:52:41.635Z,1.13
2023-02-26T18:55:46.726Z,0.70
2023-02-26T18:58:51.173Z,0.75
2023-02-26T19:01:55.511Z,0.50
2023-02-26T19:04:59.936Z,0.68
2023-02-26T19:08:03.391Z,0.50
2023-02-26T19:11:08.501Z,0.80
2023-02-26T19:14:12.139Z,0.93
2023-02-26T19:17:16.027Z,0.60
2023-02-26T19:20:19.514Z,0.70
2023-02-26T19:23:23.108Z,0.73
2023-02-26T19:26:27.917Z,0.75
2023-02-26T19:29:33.695Z,0.75
2023-02-26T19:32:37.307Z,0.88
2023-02-26T19:35:40.930Z,0.90
2023-02-26T19:38:47.492Z,0.98
2023-02-26T19:41:53.752Z,1.33
2023-02-26T19:44:57.327Z,0.98
2023-02-26T19:48:00.744Z,1.35
2023-02-26T19:51:04.349Z,1.40
2023-02-26T19:54:08.217Z,0.88
2023-02-26T19:57:13.132Z,0.73
2023-02-26T20:00:16.938Z,1.20
2023-02-26T20:03:20.685Z,1.40
2023-02-26T20:06:24.074Z,1.25
2023-02-26T20:09:27.916Z,0.77
2023-02-26T20:12:32.859Z,1.30
2023-02-26T20:15:36.426Z,1.25
2023-02-26T20:18:40.099Z,1.10
2023-02-26T20:21:43.854Z,1.10
2023-02-26T20:24:47.357Z,1.73
2023-02-26T20:27:53.019Z,2.38
2023-02-26T20:31:00.127Z,2.17
2023-02-26T20:34:03.894Z,2.72
2023-02-26T20:37:07.501Z,3.55
2023-02-26T20:40:11.477Z,3.83
2023-02-26T20:43:16.833Z,3.25
2023-02-26T20:46:20.296Z,2.88
2023-02-26T20:49:24.910Z,2.90
2023-02-26T20:52:28.533Z,2.67
2023-02-26T20:55:31.912Z,2.70
2023-02-26T20:58:38.329Z,3.28
2023-02-26T21:01:41.820Z,2.60
2023-02-26T21:04:45.273Z,2.88
2023-02-26T21:07:50.553Z,2.80
2023-02-26T21:10:53.965Z,2.47
2023-02-26T21:13:59.154Z,2.65
2023-02-26T21:17:02.701Z,2.13
2023-02-26T21:20:06.969Z,1.73
2023-02-26T21:23:10.508Z,2.03
2023-02-26T21:26:14.164Z,1.50
2023-02-26T21:29:19.245Z,1.35
2023-02-26T21:32:22.688Z,1.52
2023-02-26T21:35:26.163Z,1.90
2023-02-26T21:38:30.659Z,1.27
2023-02-26T21:41:33.977Z,1.77
2023-02-26T21:44:39.626Z,1.30
2023-02-26T21:47:43.929Z,1.10
2023-02-26T21:50:49.220Z,1.20
2023-02-26T21:53:53.338Z,1.10
2023-02-26T21:56:56.767Z,1.30
2023-02-26T22:00:01.625Z,1.10
2023-02-26T22:03:15.336Z,1.02
2023-02-26T22:06:18.714Z,1.08
2023-02-26T22:09:22.141Z,0.90
2023-02-26T22:12:25.976Z,1.15
2023-02-26T22:15:30.751Z,1.30
2023-02-26T22:18:36.228Z,0.98
2023-02-26T22:21:39.840Z,1.13
2023-02-26T22:24:43.364Z,1.33
2023-02-26T22:27:46.727Z,1.20
2023-02-26T22:30:51.870Z,1.00
2023-02-26T22:33:55.657Z,1.08
2023-02-26T22:36:59.156Z,1.20
2023-02-26T22:40:03.685Z,1.00
2023-02-26T22:43:07.348Z,1.30
2023-02-26T22:46:12.326Z,1.10
2023-02-26T22:49:15.856Z,1.33
2023-02-26T22:52:19.224Z,1.60
2023-02-26T22:55:24.180Z,1.23
2023-02-26T22:58:28.636Z,1.05
2023-02-26T23:01:35.194Z,1.45
2023-02-26T23:04:39.619Z,1.52
2023-02-26T23:07:45.248Z,1.10
2023-02-26T23:10:49.680Z,1.20
2023-02-26T23:13:54.768Z,1.20
2023-02-26T23:16:59.453Z,1.80
2023-02-26T23:20:02.836Z,1.27
2023-02-26T23:23:06.424Z,1.40
2023-02-26T23:26:10.282Z,1.02
2023-02-26T23:29:13.841Z,1.23
2023-02-26T23:32:18.796Z,1.40
2023-02-26T23:35:22.288Z,1.30
2023-02-26T23:38:25.676Z,1.63
2023-02-26T23:41:29.086Z,1.40
2023-02-26T23:44:32.608Z,1.15
2023-02-26T23:47:37.370Z,1.65
2023-02-26T23:50:40.712Z,1.23
2023-02-26T23:53:44.088Z,1.15
2023-02-26T23:56:47.623Z,1.30
2023-02-26T23:59:50.988Z,0.88
